Time;durP1;ratioP1;P1;durP2;ratioP2;P2;SDS_P1;SDS_P2;PMS_P1;PMS_P2;Temp;Humidity;BMP_temperature;BMP_pressure;BME280_temperature;BME280_humidity;BME280_pressure;Samples;Min_cycle;Max_cycle;Signal;HPM_P1;HPM_P2
2022/01/14 00:01:20;;;;;;;3.55;2.62;;;;;;;6.78;49.94;99265.44;1781171;80;21197;-70
2022/01/14 00:03:47;;;;;;;3.50;2.50;;;;;;;6.79;49.95;99253.41;1788833;78;21025;-70
2022/01/14 00:06:14;;;;;;;3.42;2.98;;;;;;;6.79;49.96;99244.66;1800782;78;21087;-69
2022/01/14 00:08:40;;;;;;;3.05;2.25;;;;;;;6.80;49.96;99255.55;1786965;80;21497;-69
2022/01/14 00:11:14;;;;;;;3.00;2.70;;;;;;;6.81;49.94;99254.08;1782630;80;21500;-69
2022/01/14 00:13:47;;;;;;;2.60;2.33;;;;;;;6.82;49.93;99250.97;1793685;78;22040;-69
2022/01/14 00:16:06;;;;;;;3.77;2.75;;;;;;;6.83;49.94;99256.56;1793016;80;20996;-70
2022/01/14 00:18:32;;;;;;;3.37;2.80;;;;;;;6.82;49.95;99241.72;1790205;79;21077;-68
2022/01/14 00:21:02;;;;;;;2.42;2.17;;;;;;;6.83;49.92;99237.58;1776576;80;21111;-68
2022/01/14 00:23:30;;;;;;;3.05;2.30;;;;;;;6.83;49.93;99234.94;1773850;78;21056;-69
2022/01/14 00:34:06;;;;;;;3.02;2.22;;;;;;;6.85;49.95;99241.39;1724250;79;23321;-68
2022/01/14 00:36:33;;;;;;;2.67;2.05;;;;;;;6.84;49.97;99241.89;1793087;78;21089;-70
2022/01/14 00:38:59;;;;;;;3.17;2.45;;;;;;;6.85;49.99;99234.30;1779170;80;21441;-69
2022/01/14 00:41:25;;;;;;;2.10;1.90;;;;;;;6.85;49.99;99218.45;1766068;79;21050;-69
2022/01/14 00:43:59;;;;;;;2.95;2.12;;;;;;;6.85;49.99;99218.45;1785408;78;21040;-69
2022/01/14 00:46:20;;;;;;;3.27;2.70;;;;;;;6.86;49.99;99228.04;1753486;80;21123;-69
2022/01/14 00:48:47;;;;;;;3.60;2.72;;;;;;;6.86;50.00;99230.68;1782573;80;21091;-68
2022/01/14 00:51:13;;;;;;;2.83;2.12;;;;;;;6.86;50.00;99226.72;1789868;78;21051;-68
2022/01/14 00:53:40;;;;;;;3.00;2.40;;;;;;;6.88;50.00;99230.03;1781267;78;21048;-68
2022/01/14 00:56:07;;;;;;;3.17;2.45;;;;;;;6.88;49.99;99220.79;1782210;79;21029;-70
2022/01/14 01:01:18;;;;;;;2.60;2.02;;;;;;;6.89;50.01;99212.36;1762010;80;21084;-68
2022/01/14 01:03:44;;;;;;;2.58;2.15;;;;;;;6.89;50.03;99213.22;1785202;78;21107;-70
2022/01/14 01:06:12;;;;;;;2.80;2.33;;;;;;;6.90;50.00;99208.76;1781459;80;21028;-68
2022/01/14 01:08:39;;;;;;;2.50;1.95;;;;;;;6.91;50.01;99202.47;1756698;80;21068;-68
2022/01/14 01:11:09;;;;;;;3.27;2.25;;;;;;;6.91;50.02;99192.41;1784444;80;21086;-68
2022/01/14 01:13:37;;;;;;;3.00;2.27;;;;;;;6.93;50.03;99190.44;1784890;78;21013;-69
2022/01/14 01:16:03;;;;;;;2.80;2.05;;;;;;;6.93;50.02;99185.98;1783993;80;21025;-68
2022/01/14 01:18:31;;;;;;;2.40;2.15;;;;;;;6.92;50.03;99177.73;1779238;80;21088;-70
2022/01/14 01:20:59;;;;;;;2.83;2.20;;;;;;;6.94;50.01;99168.34;1775296;78;21044;-69
2022/01/14 01:23:25;;;;;;;2.10;1.90;;;;;;;6.94;50.02;99164.38;1783896;79;21798;-69
2022/01/14 01:26:07;;;;;;;1.85;1.65;;;;;;;6.95;50.03;99154.95;1786280;80;20997;-68
2022/01/14 01:28:26;;;;;;;2.52;2.05;;;;;;;6.95;50.04;99144.39;1780418;80;21083;-67
2022/01/14 01:31:05;;;;;;;2.80;2.10;;;;;;;6.96;50.02;99149.20;1784351;78;21022;-68
2022/01/14 01:33:20;;;;;;;2.02;1.80;;;;;;;6.97;50.04;99146.87;1775936;80;21041;-69
2022/01/14 01:35:47;;;;;;;2.30;2.10;;;;;;;6.96;50.03;99136.00;1775437;79;21612;-67
2022/01/14 01:38:15;;;;;;;2.17;1.90;;;;;;;6.97;50.05;99124.43;1779258;78;21020;-68
2022/01/14 01:40:44;;;;;;;2.08;1.62;;;;;;;6.97;50.05;99113.37;1780396;80;21197;-68
2022/01/14 01:43:11;;;;;;;2.95;1.90;;;;;;;6.99;50.04;99102.65;1770811;80;21049;-69
2022/01/14 01:45:39;;;;;;;2.98;1.95;;;;;;;6.99;50.05;99086.33;1773634;80;21049;-66
2022/01/14 01:48:05;;;;;;;2.17;1.98;;;;;;;6.99;50.05;99071.81;1781326;79;21026;-68
2022/01/14 01:50:36;;;;;;;2.42;1.92;;;;;;;6.99;50.06;99056.44;1766711;80;21081;-69
2022/01/14 01:53:01;;;;;;;2.40;1.95;;;;;;;7.00;50.05;99047.04;1755069;79;21085;-67
2022/01/14 01:55:28;;;;;;;2.12;1.85;;;;;;;7.01;50.03;99038.61;1772591;80;21049;-67
2022/01/14 01:57:54;;;;;;;2.25;1.85;;;;;;;7.01;50.05;99035.97;1772095;79;20994;-68
2022/01/14 02:00:25;;;;;;;2.75;1.90;;;;;;;7.03;50.07;99040.59;1774738;80;21141;-67
2022/01/14 02:02:53;;;;;;;2.08;1.87;;;;;;;7.03;50.04;99032.67;1777437;80;21036;-69
2022/01/14 02:05:20;;;;;;;2.87;2.27;;;;;;;7.04;50.03;99031.70;1777070;80;20990;-68
2022/01/14 02:07:46;;;;;;;2.92;1.80;;;;;;;7.04;50.04;99028.55;1776349;80;21011;-68
2022/01/14 02:10:13;;;;;;;2.35;1.70;;;;;;;7.05;50.06;99032.02;1760327;80;21998;-69
2022/01/14 02:12:49;;;;;;;2.17;1.70;;;;;;;7.05;50.04;99034.66;1778365;80;21144;-68
2022/01/14 02:15:13;;;;;;;2.87;2.10;;;;;;;7.06;50.06;99045.56;1766937;80;21361;-67
2022/01/14 02:18:23;;;;;;;2.17;1.82;;;;;;;7.06;50.05;99033.17;1771214;80;21005;-67
2022/01/14 02:23:03;;;;;;;2.62;2.25;;;;;;;7.08;50.07;99039.13;1788978;78;21445;-68
2022/01/14 02:25:30;;;;;;;1.77;1.57;;;;;;;7.08;50.06;99025.09;1782679;79;21135;-67
2022/01/14 02:28:02;;;;;;;3.02;1.70;;;;;;;7.08;50.07;99025.91;1779149;80;21041;-68
2022/01/14 02:30:30;;;;;;;1.60;1.50;;;;;;;7.09;50.07;99030.73;1780967;79;21534;-67
2022/01/14 02:32:56;;;;;;;2.22;1.77;;;;;;;7.09;50.10;99014.88;1782466;80;21462;-67
2022/01/14 02:35:23;;;;;;;2.12;1.92;;;;;;;7.10;50.09;99012.55;1782511;80;21100;-68
2022/01/14 02:37:50;;;;;;;1.90;1.45;;;;;;;7.10;50.10;99008.59;1787532;80;21290;-69
2022/01/14 02:40:17;;;;;;;2.60;1.77;;;;;;;7.11;50.11;99006.77;1783014;78;21457;-67
2022/01/14 02:42:44;;;;;;;2.17;1.72;;;;;;;7.11;50.09;98993.09;1780578;80;21013;-67
2022/01/14 02:45:12;;;;;;;2.98;1.60;;;;;;;7.13;50.10;98994.22;1786353;80;21061;-68
2022/01/14 02:47:38;;;;;;;1.62;1.27;;;;;;;7.12;50.10;98997.86;1764697;80;21517;-67
2022/01/14 02:50:13;;;;;;;1.92;1.45;;;;;;;7.12;50.12;98986.80;1784113;80;21158;-67
2022/01/14 02:52:53;;;;;;;1.67;1.57;;;;;;;7.13;50.12;98977.05;1769683;78;21039;-68
2022/01/14 02:55:17;;;;;;;2.67;1.70;;;;;;;7.14;50.11;98977.39;1781085;80;21055;-68
2022/01/14 02:57:44;;;;;;;1.47;1.37;;;;;;;7.14;50.12;98975.57;1793946;78;21332;-67
2022/01/14 03:00:12;;;;;;;2.05;1.60;;;;;;;7.14;50.11;98963.69;1778754;79;21024;-68
2022/01/14 03:02:45;;;;;;;1.50;1.40;;;;;;;7.15;50.12;98951.33;1792782;78;21149;-67
2022/01/14 03:05:12;;;;;;;1.50;1.40;;;;;;;7.16;50.13;98955.09;1767743;80;21058;-67
2022/01/14 03:07:39;;;;;;;1.60;1.50;;;;;;;7.16;50.14;98947.67;1783768;78;21032;-68
2022/01/14 03:10:07;;;;;;;2.08;1.47;;;;;;;7.16;50.14;98940.56;1780610;80;21550;-67
2022/01/14 03:12:34;;;;;;;1.90;1.60;;;;;;;7.18;50.14;98952.30;1774316;78;21036;-67
2022/01/14 03:15:01;;;;;;;2.47;1.50;;;;;;;7.17;50.13;98939.59;1790305;79;21470;-67
2022/01/14 03:17:28;;;;;;;1.52;1.40;;;;;;;7.17;50.14;98947.52;1769527;79;21076;-67
2022/01/14 03:19:55;;;;;;;1.60;1.47;;;;;;;7.18;50.15;98942.55;1779301;78;21404;-67
2022/01/14 03:22:28;;;;;;;2.25;1.57;;;;;;;7.18;50.14;98931.98;1782119;78;21029;-67
2022/01/14 03:27:16;;;;;;;1.98;1.42;;;;;;;7.19;50.13;98912.52;1765352;80;21261;-67
2022/01/14 03:29:42;;;;;;;1.35;1.25;;;;;;;7.20;50.15;98908.05;1785623;78;21712;-67
2022/01/14 03:32:09;;;;;;;1.70;1.60;;;;;;;7.20;50.14;98902.26;1787553;80;21072;-67
2022/01/14 03:34:36;;;;;;;1.95;1.60;;;;;;;7.22;50.17;98894.17;1793309;79;21078;-67
2022/01/14 03:37:03;;;;;;;1.50;1.40;;;;;;;7.21;50.17;98886.75;1776413;79;21027;-68
2022/01/14 03:39:30;;;;;;;2.02;1.72;;;;;;;7.21;50.17;98880.15;1772266;80;21190;-67
2022/01/14 03:41:57;;;;;;;1.65;1.55;;;;;;;7.22;50.18;98875.68;1770286;80;21488;-67
2022/01/14 03:44:23;;;;;;;1.90;1.62;;;;;;;7.23;50.18;98859.67;1774104;80;21071;-67
2022/01/14 03:46:50;;;;;;;1.95;1.75;;;;;;;7.22;50.18;98855.39;1790588;78;21001;-69
2022/01/14 03:49:16;;;;;;;1.85;1.40;;;;;;;7.23;50.19;98835.89;1779835;80;21532;-67
2022/01/14 03:51:44;;;;;;;2.20;1.60;;;;;;;7.24;50.21;98830.95;1782116;80;21080;-67
2022/01/14 03:54:10;;;;;;;2.30;1.70;;;;;;;7.24;50.18;98824.34;1786207;78;21004;-67
2022/01/14 03:56:37;;;;;;;1.52;1.40;;;;;;;7.24;50.19;98822.18;1775440;80;21005;-68
2022/01/14 03:59:04;;;;;;;1.77;1.52;;;;;;;7.25;50.21;98817.23;1768449;79;21092;-68
2022/01/14 04:01:31;;;;;;;1.85;1.40;;;;;;;7.26;50.20;98825.00;1771933;79;21019;-69
2022/01/14 04:03:57;;;;;;;1.65;1.50;;;;;;;7.26;50.20;98809.63;1780376;79;21191;-68
2022/01/14 04:08:43;;;;;;;2.30;1.30;;;;;;;7.33;50.18;98801.86;1885067;75;28165;-68
2022/01/14 04:11:09;;;;;;;1.60;1.32;;;;;;;7.29;50.17;98806.15;1857614;77;21071;-67
2022/01/14 04:13:50;;;;;;;1.40;1.30;;;;;;;7.30;50.18;98803.00;1845253;77;22312;-68
2022/01/14 04:16:06;;;;;;;1.67;1.25;;;;;;;7.29;50.19;98796.91;1772466;77;20957;-67
2022/01/14 04:18:33;;;;;;;2.00;1.50;;;;;;;7.31;50.18;98795.42;1853347;77;21545;-67
2022/01/14 04:21:00;;;;;;;2.85;1.60;;;;;;;7.32;50.20;98793.59;1850715;77;21008;-67
2022/01/14 04:23:26;;;;;;;2.27;1.60;;;;;;;7.30;50.21;98787.16;1831901;77;21044;-68
2022/01/14 04:25:53;;;;;;;2.10;1.45;;;;;;;7.32;50.21;98794.91;1848570;77;21135;-67
2022/01/14 04:28:21;;;;;;;1.57;1.30;;;;;;;7.32;50.21;98783.02;1838273;77;20966;-69
2022/01/14 04:30:48;;;;;;;1.52;1.25;;;;;;;7.32;50.21;98786.98;1855265;77;21021;-68
2022/01/14 04:33:15;;;;;;;2.20;1.57;;;;;;;7.33;50.23;98787.33;1857823;77;21100;-68
2022/01/14 04:35:41;;;;;;;1.42;1.27;;;;;;;7.34;50.23;98785.84;1845974;77;21043;-68
2022/01/14 04:38:08;;;;;;;1.20;1.10;;;;;;;7.34;50.22;98787.64;1848352;77;21129;-68
2022/01/14 04:40:34;;;;;;;1.25;1.10;;;;;;;7.35;50.22;98782.70;1834030;77;21001;-68
2022/01/14 04:43:01;;;;;;;1.30;1.20;;;;;;;7.35;50.24;98777.41;1852567;77;20990;-68
2022/01/14 04:47:54;;;;;;;2.17;1.57;;;;;;;7.35;50.24;98776.91;1840781;77;21007;-67
2022/01/14 04:50:22;;;;;;;1.40;1.30;;;;;;;7.35;50.26;98768.98;1845738;77;21078;-67
2022/01/14 04:52:48;;;;;;;1.57;1.47;;;;;;;7.36;50.28;98770.64;1845031;77;21465;-67
2022/01/14 04:55:17;;;;;;;1.50;1.30;;;;;;;7.36;50.28;98777.72;1837133;77;21022;-67
2022/01/14 04:57:44;;;;;;;1.50;1.32;;;;;;;7.37;50.27;98770.14;1847587;77;21080;-67
2022/01/14 05:00:14;;;;;;;1.47;1.22;;;;;;;7.37;50.28;98759.06;1845104;77;20961;-67
2022/01/14 05:02:41;;;;;;;1.47;1.30;;;;;;;7.37;50.28;98766.17;1849828;76;21082;-69
2022/01/14 05:05:08;;;;;;;1.50;1.40;;;;;;;7.37;50.29;98757.73;1829965;77;21592;-68
2022/01/14 05:07:35;;;;;;;1.80;1.22;;;;;;;7.38;50.31;98755.91;1842150;77;20994;-67
2022/01/14 05:12:38;;;;;;;1.80;1.40;;;;;;;7.39;50.29;98758.89;1823074;77;21049;-69
2022/01/14 05:15:05;;;;;;;1.42;1.32;;;;;;;7.40;50.29;98749.98;1829273;77;21123;-68
2022/01/14 05:17:32;;;;;;;1.20;1.10;;;;;;;7.40;50.29;98753.95;1818004;77;21025;-68
2022/01/14 05:19:58;;;;;;;1.30;1.15;;;;;;;7.40;50.30;98738.91;1813613;77;20996;-68
2022/01/14 05:22:26;;;;;;;1.40;1.30;;;;;;;7.41;50.29;98737.09;1820048;77;21490;-66
2022/01/14 05:24:52;;;;;;;1.20;1.10;;;;;;;7.41;50.31;98731.80;1820379;77;20998;-68
2022/01/14 05:27:18;;;;;;;1.40;1.30;;;;;;;7.42;50.32;98727.67;1823286;77;21118;-67
2022/01/14 05:29:45;;;;;;;1.55;1.37;;;;;;;7.42;50.32;98721.57;1806559;77;21045;-67
2022/01/14 05:32:15;;;;;;;1.85;1.45;;;;;;;7.42;50.32;98720.25;1819792;77;21721;-67
2022/01/14 05:34:43;;;;;;;1.52;1.17;;;;;;;7.42;50.34;98713.14;1819693;78;21466;-67
2022/01/14 05:37:10;;;;;;;1.40;1.30;;;;;;;7.42;50.34;98686.72;1803588;77;21544;-66
2022/01/14 05:39:37;;;;;;;1.62;1.47;;;;;;;7.44;50.32;98698.44;1813040;77;21139;-67
2022/01/14 05:42:04;;;;;;;1.85;1.40;;;;;;;7.44;50.34;98694.47;1778354;79;21549;-66
2022/01/14 05:44:31;;;;;;;1.82;1.30;;;;;;;7.44;50.33;98687.36;1813942;77;21049;-67
2022/01/14 05:46:59;;;;;;;1.32;1.10;;;;;;;7.45;50.34;98689.50;1808366;77;21533;-67
2022/01/14 05:49:25;;;;;;;1.40;1.30;;;;;;;7.45;50.33;98684.21;1814597;77;21072;-68
2022/01/14 05:51:51;;;;;;;1.42;1.27;;;;;;;7.45;50.34;98694.27;1777485;79;21112;-66
2022/01/14 05:54:18;;;;;;;1.42;1.22;;;;;;;7.46;50.34;98687.20;1762319;80;21034;-67
2022/01/14 05:56:45;;;;;;;2.02;1.42;;;;;;;7.47;50.36;98684.86;1817967;77;21564;-66
2022/01/14 05:59:12;;;;;;;1.32;1.22;;;;;;;7.47;50.35;98670.33;1802206;77;21084;-68
2022/01/14 06:01:38;;;;;;;1.95;1.20;;;;;;;7.47;50.38;98664.56;1801820;77;21032;-68
2022/01/14 06:04:05;;;;;;;1.30;1.20;;;;;;;7.48;50.38;98666.70;1809075;77;21298;-67
2022/01/14 06:06:33;;;;;;;1.80;1.35;;;;;;;7.48;50.37;98666.70;1815997;78;20986;-67
2022/01/14 06:09:01;;;;;;;1.47;1.20;;;;;;;7.49;50.41;98674.94;1801220;78;21561;-67
2022/01/14 06:11:28;;;;;;;1.40;1.30;;;;;;;7.50;50.38;98658.09;1788833;78;21007;-69
2022/01/14 06:13:55;;;;;;;1.27;1.17;;;;;;;7.50;50.40;98649.35;1798823;78;21017;-69
2022/01/14 06:16:21;;;;;;;1.50;1.37;;;;;;;7.49;50.41;98644.55;1783650;78;21132;-67
2022/01/14 06:18:48;;;;;;;1.17;1.07;;;;;;;7.50;50.44;98650.67;1809031;78;21017;-68
2022/01/14 06:21:14;;;;;;;1.40;1.25;;;;;;;7.51;50.43;98643.05;1806988;78;21037;-68
2022/01/14 06:23:40;;;;;;;2.00;1.50;;;;;;;7.52;50.44;98653.96;1800758;78;21544;-68
2022/01/14 06:26:07;;;;;;;2.02;1.42;;;;;;;7.52;50.43;98648.17;1799230;78;21002;-65
2022/01/14 06:28:34;;;;;;;1.37;1.27;;;;;;;7.52;50.46;98653.96;1803656;78;21259;-67
2022/01/14 06:31:00;;;;;;;2.12;1.35;;;;;;;7.53;50.45;98635.27;1793007;78;21163;-67
2022/01/14 06:33:27;;;;;;;2.40;1.50;;;;;;;7.53;50.45;98641.88;1803185;78;21062;-67
2022/01/14 06:35:53;;;;;;;2.25;2.00;;;;;;;7.54;50.46;98634.28;1800232;78;21013;-67
2022/01/14 06:38:20;;;;;;;1.60;1.42;;;;;;;7.54;50.45;98613.14;1803589;78;21076;-67
2022/01/14 06:40:47;;;;;;;1.50;1.32;;;;;;;7.56;50.47;98598.43;1803490;78;21046;-67
2022/01/14 06:43:17;;;;;;;2.35;1.45;;;;;;;7.55;50.48;98585.72;1788375;78;21474;-67
2022/01/14 06:45:43;;;;;;;1.40;1.30;;;;;;;7.56;50.47;98578.61;1816767;78;21076;-65
2022/01/14 06:48:10;;;;;;;2.17;1.40;;;;;;;7.57;50.46;98564.38;1808512;78;22400;-66
2022/01/14 06:50:36;;;;;;;2.25;1.45;;;;;;;7.58;50.49;98562.88;1800698;78;21135;-66
2022/01/14 06:53:03;;;;;;;2.47;1.87;;;;;;;7.58;50.49;98556.28;1805375;78;21136;-66
2022/01/14 06:55:30;;;;;;;1.70;1.40;;;;;;;7.59;50.50;98552.66;1799830;77;21057;-66
2022/01/14 06:57:56;;;;;;;2.37;1.57;;;;;;;7.59;50.50;98552.66;1795489;78;21509;-66
2022/01/14 07:00:23;;;;;;;2.20;2.00;;;;;;;7.60;50.50;98541.06;1798756;78;20994;-64
2022/01/14 07:02:50;;;;;;;1.45;1.27;;;;;;;7.61;50.50;98540.08;1800006;78;21551;-66
2022/01/14 07:05:17;;;;;;;2.00;1.70;;;;;;;7.62;50.50;98535.09;1767178;80;21198;-65
2022/01/14 07:07:43;;;;;;;2.05;1.45;;;;;;;7.62;50.51;98528.48;1763764;80;21525;-68
2022/01/14 07:10:10;;;;;;;2.10;1.40;;;;;;;7.63;50.50;98523.53;1748489;81;21656;-66
2022/01/14 07:12:40;;;;;;;2.17;1.55;;;;;;;7.64;50.49;98543.66;1747968;81;21056;-66
2022/01/14 07:15:10;;;;;;;2.05;1.70;;;;;;;7.65;50.48;98544.52;1749733;81;21478;-66
2022/01/14 07:17:37;;;;;;;1.92;1.50;;;;;;;7.65;50.50;98538.72;1747032;81;21131;-66
2022/01/14 07:20:08;;;;;;;2.12;1.72;;;;;;;7.66;50.48;98539.02;1782178;79;21533;-65
2022/01/14 07:22:35;;;;;;;2.27;1.65;;;;;;;7.66;50.50;98541.66;1819233;77;21025;-68
2022/01/14 07:25:03;;;;;;;2.08;1.60;;;;;;;7.68;50.49;98535.70;1817769;77;21056;-67
2022/01/14 07:27:32;;;;;;;2.62;2.00;;;;;;;7.68;50.50;98525.13;1810148;77;21052;-67
2022/01/14 07:29:58;;;;;;;1.90;1.57;;;;;;;7.68;50.49;98517.19;1810906;77;21056;-68
2022/01/14 07:32:25;;;;;;;1.80;1.57;;;;;;;7.70;50.50;98517.02;1816991;78;21009;-68
2022/01/14 07:34:52;;;;;;;1.70;1.50;;;;;;;7.70;50.49;98515.70;1816554;78;21006;-67
2022/01/14 07:37:18;;;;;;;1.87;1.60;;;;;;;7.70;50.49;98510.92;1818092;78;21049;-68
2022/01/14 07:39:45;;;;;;;1.90;1.72;;;;;;;7.71;50.45;98507.26;1814678;78;21112;-67
2022/01/14 07:42:11;;;;;;;2.87;2.10;;;;;;;7.72;50.47;98509.73;1809889;78;21881;-68
2022/01/14 07:44:38;;;;;;;2.20;1.82;;;;;;;7.73;50.48;98510.58;1817893;77;21059;-66
2022/01/14 07:47:06;;;;;;;2.35;1.80;;;;;;;7.74;50.48;98506.91;1809720;78;21068;-66
2022/01/14 07:49:32;;;;;;;2.27;1.80;;;;;;;7.74;50.48;98506.41;1815975;77;21493;-68
2022/01/14 07:51:59;;;;;;;2.50;2.25;;;;;;;7.75;50.47;98505.41;1810874;78;21038;-68
2022/01/14 07:54:25;;;;;;;3.17;2.45;;;;;;;7.76;50.45;98504.91;1807393;78;21469;-65
2022/01/14 07:56:57;;;;;;;2.37;1.77;;;;;;;7.77;50.46;98494.66;1810151;78;21017;-68
2022/01/14 07:59:23;;;;;;;2.35;2.00;;;;;;;7.78;50.43;98482.56;1807370;78;21037;-67
2022/01/14 08:01:54;;;;;;;2.05;1.65;;;;;;;7.79;50.43;98467.55;1816918;78;20999;-68
2022/01/14 08:04:20;;;;;;;2.37;1.98;;;;;;;7.80;50.41;98483.71;1814038;78;21042;-68
2022/01/14 08:06:49;;;;;;;2.12;1.87;;;;;;;7.82;50.40;98473.77;1815531;78;21459;-67
2022/01/14 08:09:17;;;;;;;2.40;2.00;;;;;;;7.82;50.38;98454.79;1822504;77;21045;-67
2022/01/14 08:11:44;;;;;;;2.40;1.90;;;;;;;7.83;50.38;98447.16;1801645;79;21041;-67
2022/01/14 08:14:11;;;;;;;2.37;1.98;;;;;;;7.84;50.35;98428.14;1844708;77;21069;-66
2022/01/14 08:16:38;;;;;;;2.47;2.10;;;;;;;7.85;50.36;98424.51;1837503;77;21177;-68
2022/01/14 08:19:04;;;;;;;2.47;1.72;;;;;;;7.85;50.33;98425.32;1835357;77;21078;-67
2022/01/14 08:21:31;;;;;;;2.10;1.77;;;;;;;7.86;50.35;98423.02;1831309;77;21096;-67
2022/01/14 08:23:57;;;;;;;2.85;2.00;;;;;;;7.87;50.35;98407.45;1835038;77;20986;-69
2022/01/14 08:26:24;;;;;;;2.50;1.90;;;;;;;7.88;50.31;98396.39;1824987;77;21018;-67
2022/01/14 08:28:51;;;;;;;2.85;1.98;;;;;;;7.90;50.32;98391.73;1833097;76;21006;-67
2022/01/14 08:31:17;;;;;;;2.02;1.77;;;;;;;7.91;50.30;98389.91;1831526;77;22400;-67
2022/01/14 08:33:46;;;;;;;2.40;2.10;;;;;;;7.92;50.31;98389.73;1832507;77;21064;-67
2022/01/14 08:36:13;;;;;;;3.22;1.90;;;;;;;7.94;50.29;98387.72;1826059;77;21130;-66
2022/01/14 08:38:40;;;;;;;2.87;1.95;;;;;;;7.95;50.28;98372.16;1836573;77;21009;-67
2022/01/14 08:41:06;;;;;;;2.58;2.17;;;;;;;7.95;50.26;98365.54;1833549;77;21119;-69
2022/01/14 08:43:33;;;;;;;2.75;1.65;;;;;;;7.96;50.25;98369.84;1823807;77;21783;-66
2022/01/14 08:46:02;;;;;;;3.00;1.90;;;;;;;7.98;50.26;98361.22;1832544;77;21064;-67
2022/01/14 08:48:30;;;;;;;1.77;1.62;;;;;;;8.00;50.23;98362.36;1835157;76;21009;-66
2022/01/14 08:50:57;;;;;;;2.22;1.72;;;;;;;8.01;50.24;98349.44;1836749;77;21065;-66
2022/01/14 08:53:23;;;;;;;2.70;1.90;;;;;;;8.01;50.21;98335.70;1832090;77;22093;-67
2022/01/14 08:55:49;;;;;;;1.95;1.47;;;;;;;8.02;50.23;98347.94;1833123;77;21053;-67
2022/01/14 08:58:16;;;;;;;2.85;1.90;;;;;;;8.04;50.22;98319.98;1825812;77;21435;-68
2022/01/14 09:00:43;;;;;;;2.45;1.75;;;;;;;8.04;50.19;98332.70;1840679;77;21062;-67
2022/01/14 09:03:09;;;;;;;2.42;1.82;;;;;;;8.06;50.20;98317.46;1825816;77;20978;-67
2022/01/14 09:05:36;;;;;;;2.20;1.85;;;;;;;8.07;50.16;98303.72;1835759;77;20967;-66
2022/01/14 09:08:04;;;;;;;2.35;1.85;;;;;;;8.08;50.15;98309.34;1833832;77;21045;-66
2022/01/14 09:10:30;;;;;;;2.62;2.08;;;;;;;8.09;50.14;98288.48;1831170;77;20998;-66
2022/01/14 09:12:56;;;;;;;3.70;2.00;;;;;;;8.11;50.14;98288.30;1851229;77;20998;-67
2022/01/14 09:15:23;;;;;;;1.92;1.52;;;;;;;8.10;50.16;98280.07;1846055;77;21489;-67
2022/01/14 09:17:49;;;;;;;2.12;1.92;;;;;;;8.12;50.13;98288.13;1840281;77;21072;-68
2022/01/14 09:20:16;;;;;;;3.00;1.60;;;;;;;8.13;50.13;98284.97;1847739;77;21912;-67
2022/01/14 09:22:48;;;;;;;2.27;1.85;;;;;;;8.14;50.11;98286.11;1843034;77;20998;-67
2022/01/14 09:25:11;;;;;;;2.52;2.20;;;;;;;8.15;50.10;98277.18;1848173;75;21043;-69
2022/01/14 09:27:38;;;;;;;1.75;1.52;;;;;;;8.17;50.09;98275.64;1850980;77;21457;-69
2022/01/14 09:30:06;;;;;;;2.10;1.70;;;;;;;8.18;50.10;98271.49;1854610;77;21001;-70
2022/01/14 09:32:34;;;;;;;2.58;1.87;;;;;;;8.20;50.14;98266.02;1846872;77;20993;-67
2022/01/14 09:35:06;;;;;;;2.70;1.80;;;;;;;8.21;50.35;98255.77;1836798;77;20977;-69
2022/01/14 09:37:32;;;;;;;2.22;1.70;;;;;;;8.22;50.45;98228.29;1846004;77;21509;-68
2022/01/14 09:39:58;;;;;;;2.45;1.95;;;;;;;8.23;50.54;98229.43;1845634;77;21489;-69
2022/01/14 09:42:25;;;;;;;2.35;2.05;;;;;;;8.24;50.57;98231.56;1856497;77;21024;-69
2022/01/14 09:44:51;;;;;;;2.20;1.72;;;;;;;8.26;50.62;98220.28;1852850;75;22164;-66
2022/01/14 09:47:19;;;;;;;2.42;1.62;;;;;;;8.27;50.64;98225.39;1842222;77;20982;-67
2022/01/14 09:49:46;;;;;;;2.17;1.70;;;;;;;8.27;50.64;98226.71;1853099;77;21044;-66
2022/01/14 09:52:13;;;;;;;2.30;1.72;;;;;;;8.29;50.62;98204.04;1847970;77;21022;-67
2022/01/14 09:54:42;;;;;;;2.20;1.60;;;;;;;8.31;50.62;98194.08;1833853;77;21013;-68
2022/01/14 09:57:11;;;;;;;3.00;2.08;;;;;;;8.32;50.62;98197.02;1859417;77;21734;-68
2022/01/14 09:59:38;;;;;;;1.65;1.40;;;;;;;8.35;50.56;98199.30;1856629;77;21576;-67
2022/01/14 10:02:05;;;;;;;2.40;1.65;;;;;;;8.37;50.53;98189.86;1849278;77;21084;-70
2022/01/14 10:04:31;;;;;;;2.33;1.77;;;;;;;8.37;50.51;98176.11;1815676;78;21080;-68
2022/01/14 10:06:59;;;;;;;2.10;1.70;;;;;;;8.37;50.49;98166.84;1810075;78;21092;-68
2022/01/14 10:09:35;;;;;;;1.80;1.32;;;;;;;8.39;50.46;98172.77;1810620;78;21498;-67
2022/01/14 10:12:20;;;;;;;2.20;1.90;;;;;;;8.43;50.44;98171.91;1853649;77;21080;-68
2022/01/14 10:15:00;;;;;;;1.62;1.45;;;;;;;8.43;50.40;98166.11;1841475;77;21009;-66
2022/01/14 10:17:41;;;;;;;2.25;2.00;;;;;;;8.45;50.35;98163.27;1850050;77;20974;-67
2022/01/14 10:20:15;;;;;;;2.37;1.60;;;;;;;8.47;50.31;98155.95;1828817;77;21029;-67
2022/01/14 10:22:48;;;;;;;2.08;1.85;;;;;;;8.48;50.28;98152.31;1845794;77;21132;-68
2022/01/14 10:25:18;;;;;;;1.65;1.35;;;;;;;8.50;50.27;98142.83;1843262;77;21080;-70
2022/01/14 10:27:50;;;;;;;1.90;1.72;;;;;;;8.52;50.26;98128.41;1843042;77;21095;-69
2022/01/14 10:30:20;;;;;;;1.87;1.67;;;;;;;8.54;50.22;98121.61;1847470;77;21072;-67
2022/01/14 10:33:03;;;;;;;2.02;1.65;;;;;;;8.56;50.17;98111.64;1852351;77;21655;-67
2022/01/14 10:35:42;;;;;;;1.75;1.60;;;;;;;8.58;50.44;98100.34;1838131;77;21102;-67
2022/01/14 10:38:12;;;;;;;2.30;1.45;;;;;;;8.65;51.15;98097.20;1843981;77;21037;-68
2022/01/14 10:40:45;;;;;;;3.10;2.08;;;;;;;8.71;52.34;98075.27;1847263;75;21045;-65
2022/01/14 10:43:15;;;;;;;1.75;1.50;;;;;;;8.76;52.72;98085.26;1842927;77;21068;-65
2022/01/14 10:45:45;;;;;;;2.67;2.15;;;;;;;8.79;53.15;98078.27;1838596;77;20994;-69
2022/01/14 10:48:18;;;;;;;2.15;1.80;;;;;;;8.83;53.31;98068.91;1852123;75;21860;-69
2022/01/14 10:50:56;;;;;;;2.40;1.57;;;;;;;8.87;53.41;98040.20;1827074;77;21045;-66
2022/01/14 10:53:41;;;;;;;2.50;1.92;;;;;;;8.90;53.45;98041.11;1838808;77;21008;-67
2022/01/14 10:56:14;;;;;;;2.30;1.90;;;;;;;8.93;53.44;98043.38;1837474;77;21048;-66
2022/01/14 10:58:47;;;;;;;2.40;1.90;;;;;;;8.94;53.38;98021.95;1841478;77;21079;-66
2022/01/14 11:01:18;;;;;;;3.02;1.50;;;;;;;8.96;53.28;98017.31;1847252;75;21161;-67
2022/01/14 11:03:46;;;;;;;1.90;1.60;;;;;;;8.98;53.15;98006.00;1838361;77;21761;-67
2022/01/14 11:06:32;;;;;;;1.82;1.65;;;;;;;8.99;53.07;98016.08;1840799;77;21478;-71
2022/01/14 11:09:01;;;;;;;2.70;1.85;;;;;;;8.99;52.96;97987.75;1842102;77;21007;-68
2022/01/14 11:11:33;;;;;;;3.00;1.98;;;;;;;8.99;52.82;97976.35;1812953;78;21158;-67
2022/01/14 11:14:00;;;;;;;2.05;1.40;;;;;;;8.99;52.71;97965.24;1813853;77;21596;-68
2022/01/14 11:16:27;;;;;;;2.22;1.85;;;;;;;9.00;52.62;97975.32;1816758;78;21021;-71
2022/01/14 11:18:56;;;;;;;3.17;1.52;;;;;;;9.00;52.52;97955.45;1813698;78;21009;-72
2022/01/14 11:24:07;;;;;;;1.70;1.50;;;;;;;9.01;52.29;97950.48;1813136;77;21008;-68
2022/01/14 11:26:35;;;;;;;1.65;1.40;;;;;;;8.99;52.24;97946.70;1816058;77;21142;-70
2022/01/14 11:29:06;;;;;;;2.20;1.70;;;;;;;8.99;52.17;97939.27;1821846;77;21013;-69
2022/01/14 11:31:37;;;;;;;2.02;1.80;;;;;;;8.98;52.11;97920.41;1805881;77;21051;-71
2022/01/14 11:34:09;;;;;;;3.12;1.70;;;;;;;8.97;52.07;97899.74;1806143;77;21025;-69
2022/01/14 11:36:51;;;;;;;2.47;1.55;;;;;;;8.97;51.99;97920.93;1811128;77;21569;-69
2022/01/14 11:39:22;;;;;;;2.22;1.87;;;;;;;8.96;51.96;97914.02;1788449;77;21376;-69
2022/01/14 11:41:55;;;;;;;2.00;1.57;;;;;;;8.95;51.89;97904.95;1806288;77;21021;-70
2022/01/14 11:44:47;;;;;;;2.15;1.72;;;;;;;8.94;51.87;97917.87;1825407;78;20998;-70
2022/01/14 11:47:39;;;;;;;1.65;1.47;;;;;;;8.95;51.83;97910.24;1818506;77;21075;-70
2022/01/14 11:50:07;;;;;;;1.80;1.55;;;;;;;8.94;51.75;97909.92;1820122;77;21016;-69
2022/01/14 11:52:40;;;;;;;2.83;1.40;;;;;;;8.93;51.74;97904.34;1772716;79;21144;-69
2022/01/14 11:55:35;;;;;;;1.70;1.50;;;;;;;8.91;51.68;97884.67;1744536;80;21101;-68
2022/01/14 11:58:09;;;;;;;1.75;1.60;;;;;;;8.91;51.67;97879.38;1824189;77;21575;-70
2022/01/14 12:00:41;;;;;;;2.25;1.47;;;;;;;8.92;51.64;97881.50;1818318;78;21061;-70
2022/01/14 12:03:32;;;;;;;2.20;1.72;;;;;;;8.89;51.62;97864.72;1778482;79;21093;-72
2022/01/14 12:06:00;;;;;;;1.45;1.35;;;;;;;8.88;51.59;97853.80;1827863;78;21979;-71
2022/01/14 12:08:35;;;;;;;1.62;1.50;;;;;;;8.88;51.57;97855.12;1822045;77;20994;-70
2022/01/14 12:11:14;;;;;;;1.75;1.47;;;;;;;8.87;51.58;97837.63;1843182;77;21484;-70
2022/01/14 12:13:59;;;;;;;1.60;1.45;;;;;;;8.87;51.55;97837.11;1846645;77;21009;-71